createdAt,value
2019-01-12T00:00:18.338Z,1008.6
2019-01-12T00:01:30.529Z,1008.6
2019-01-12T00:02:42.731Z,1008.6
2019-01-12T00:03:54.922Z,1008.5
2019-01-12T00:05:07.000Z,1008.5
2019-01-12T00:06:19.312Z,1008.5
2019-01-12T00:08:43.000Z,1008.6
2019-01-12T00:09:55.895Z,1008.6
2019-01-12T00:11:08.087Z,1008.6
2019-01-12T00:13:32.506Z,1008.7
2019-01-12T00:14:44.668Z,1008.6
2019-01-12T00:15:56.868Z,1008.6
2019-01-12T00:17:09.055Z,1008.6
2019-01-12T00:18:21.253Z,1008.6
2019-01-12T00:19:33.442Z,1008.6
2019-01-12T00:20:45.639Z,1008.6
2019-01-12T00:21:57.844Z,1008.6
2019-01-12T00:24:22.500Z,1008.7
2019-01-12T00:25:34.412Z,1008.6
2019-01-12T00:26:46.000Z,1008.6
2019-01-12T00:27:58.795Z,1008.6
2019-01-12T00:29:10.099Z,1008.6
2019-01-12T00:30:23.193Z,1008.7
2019-01-12T00:31:35.386Z,1008.7
2019-01-12T00:32:47.000Z,1008.6
2019-01-12T00:33:59.776Z,1008.6
2019-01-12T00:35:11.968Z,1008.6
2019-01-12T00:36:24.162Z,1008.6
2019-01-12T00:37:36.350Z,1008.6
2019-01-12T00:38:48.547Z,1008.6
2019-01-12T00:40:00.735Z,1008.7
2019-01-12T00:41:12.000Z,1008.7
2019-01-12T00:42:25.130Z,1008.7
2019-01-12T00:43:37.317Z,1008.7
2019-01-12T00:44:49.513Z,1008.7
2019-01-12T00:46:01.722Z,1008.7
2019-01-12T00:47:13.960Z,1008.6
2019-01-12T00:48:26.100Z,1008.7
2019-01-12T00:49:38.029Z,1008.8
2019-01-12T00:50:50.486Z,1008.7
2019-01-12T00:52:02.682Z,1008.7
2019-01-12T00:53:14.877Z,1008.7
2019-01-12T00:54:27.067Z,1008.9
2019-01-12T00:55:39.026Z,1008.8
2019-01-12T00:56:51.045Z,1008.8
2019-01-12T00:58:03.646Z,1008.8
2019-01-12T00:59:15.841Z,1008.8
2019-01-12T01:00:28.036Z,1008.8
2019-01-12T01:01:40.234Z,1008.9
2019-01-12T01:02:52.427Z,1008.9
2019-01-12T01:04:04.622Z,1008.9
2019-01-12T01:05:16.816Z,1008.9
2019-01-12T01:06:29.011Z,1008.9
2019-01-12T01:07:41.200Z,1008.9
2019-01-12T01:08:53.392Z,1009
2019-01-12T01:10:05.586Z,1009.1
2019-01-12T01:11:17.811Z,1009
2019-01-12T01:12:29.977Z,1009
2019-01-12T01:13:42.171Z,1009
2019-01-12T01:14:54.368Z,1009.1
2019-01-12T01:16:06.557Z,1009.1
2019-01-12T01:17:18.754Z,1009.1
2019-01-12T01:18:30.946Z,1009
2019-01-12T01:19:43.133Z,1009.1
2019-01-12T01:20:55.333Z,1009.1
2019-01-12T01:22:07.525Z,1009.1
2019-01-12T01:24:31.917Z,1009.1
2019-01-12T01:25:44.001Z,1009.1
2019-01-12T01:28:08.500Z,1009.1
2019-01-12T01:29:20.692Z,1009.1
2019-01-12T01:30:32.896Z,1009.1
2019-01-12T01:31:45.081Z,1009.1
2019-01-12T01:32:57.269Z,1009.1
2019-01-12T01:34:09.046Z,1009.1
2019-01-12T01:35:21.662Z,1009.1
2019-01-12T01:36:33.857Z,1009.2
2019-01-12T01:37:46.057Z,1009.1
2019-01-12T01:38:58.248Z,1009.2
2019-01-12T01:40:10.441Z,1009.2
2019-01-12T01:42:34.824Z,1009.2
2019-01-12T01:43:47.017Z,1009.2
2019-01-12T01:44:59.216Z,1009.4
2019-01-12T01:46:11.000Z,1009.3
2019-01-12T01:47:23.605Z,1009.3
2019-01-12T01:48:35.795Z,1009.3
2019-01-12T01:49:47.995Z,1009.3
2019-01-12T01:51:00.181Z,1009.3
2019-01-12T01:52:12.380Z,1009.3
2019-01-12T01:53:24.578Z,1009.3
2019-01-12T01:54:36.766Z,1009.3
2019-01-12T01:55:48.964Z,1009.3
2019-01-12T01:57:01.159Z,1009.4
2019-01-12T01:58:13.350Z,1009.3
2019-01-12T01:59:25.540Z,1009.3
2019-01-12T02:00:37.000Z,1009.3
2019-01-12T02:01:49.929Z,1009.3
2019-01-12T02:03:02.121Z,1009.3
2019-01-12T02:04:14.322Z,1009.4
2019-01-12T02:05:26.512Z,1009.4
2019-01-12T02:06:38.709Z,1009.4
2019-01-12T02:07:50.000Z,1009.3
2019-01-12T02:09:03.097Z,1009.4
2019-01-12T02:10:15.289Z,1009.4
2019-01-12T02:11:27.478Z,1009.4
2019-01-12T02:12:39.680Z,1009.4
2019-01-12T02:13:51.866Z,1009.4
2019-01-12T02:15:04.068Z,1009.4
2019-01-12T02:16:16.263Z,1009.4
2019-01-12T02:17:28.454Z,1009.4
2019-01-12T02:18:40.644Z,1009.3
2019-01-12T02:19:52.844Z,1009.4
2019-01-12T02:21:05.040Z,1009.4
2019-01-12T02:22:17.232Z,1009.4
2019-01-12T02:23:29.426Z,1009.4
2019-01-12T02:24:41.621Z,1009.4
2019-01-12T02:25:53.823Z,1009.4
2019-01-12T02:27:06.011Z,1009.4
2019-01-12T02:28:18.208Z,1009.3
2019-01-12T02:29:30.000Z,1009.3
2019-01-12T02:30:42.598Z,1009.3
2019-01-12T02:31:54.795Z,1009.3
2019-01-12T02:33:06.992Z,1009.2
2019-01-12T02:34:19.182Z,1009.3
2019-01-12T02:35:31.380Z,1009.2
2019-01-12T02:36:43.000Z,1009.2
2019-01-12T02:37:55.769Z,1009.2
2019-01-12T02:40:20.158Z,1009.3
2019-01-12T02:41:32.035Z,1009.2
2019-01-12T02:42:44.542Z,1009.3
2019-01-12T02:43:56.746Z,1009.2
2019-01-12T02:45:08.000Z,1009.2
2019-01-12T02:46:21.132Z,1009.2
2019-01-12T02:48:45.523Z,1009.2
2019-01-12T02:49:57.722Z,1009.3
2019-01-12T02:51:09.000Z,1009.2
2019-01-12T02:52:22.116Z,1009.2
2019-01-12T02:53:34.304Z,1009.2
2019-01-12T02:54:46.506Z,1009.2
2019-01-12T02:55:58.693Z,1009.2
2019-01-12T02:57:10.000Z,1009.2
2019-01-12T02:58:23.011Z,1009.1
2019-01-12T02:59:35.297Z,1009.1
2019-01-12T03:00:47.483Z,1009.3
2019-01-12T03:01:59.674Z,1009.2
2019-01-12T03:03:11.868Z,1009.1
2019-01-12T03:04:24.068Z,1009.2
2019-01-12T03:05:36.269Z,1009.2
2019-01-12T03:06:48.461Z,1009.2
2019-01-12T03:08:00.656Z,1009.1
2019-01-12T03:09:12.854Z,1009.2
2019-01-12T03:10:25.044Z,1009.1
2019-01-12T03:12:49.000Z,1009.2
2019-01-12T03:14:01.632Z,1009.1
2019-01-12T03:15:13.082Z,1009.1
2019-01-12T03:16:26.002Z,1009.1
2019-01-12T03:17:38.021Z,1009.1
2019-01-12T03:18:50.412Z,1009.1
2019-01-12T03:20:02.611Z,1009.1
2019-01-12T03:21:14.000Z,1009.1
2019-01-12T03:22:27.015Z,1009.1
2019-01-12T03:23:39.200Z,1009.1
2019-01-12T03:24:51.390Z,1009.1
2019-01-12T03:26:03.594Z,1009.1
2019-01-12T03:27:15.787Z,1009.1
2019-01-12T03:28:27.979Z,1009.1
2019-01-12T03:29:40.018Z,1009.1
2019-01-12T03:30:52.371Z,1009
2019-01-12T03:32:04.569Z,1009
2019-01-12T03:33:16.758Z,1009
2019-01-12T03:34:28.954Z,1009
2019-01-12T03:35:41.151Z,1009.1
2019-01-12T03:36:53.343Z,1009
2019-01-12T03:38:05.540Z,1009
2019-01-12T03:40:29.934Z,1009
2019-01-12T03:41:42.012Z,1009
2019-01-12T03:42:54.328Z,1009
2019-01-12T03:44:06.520Z,1008.9
2019-01-12T03:45:18.000Z,1008.9
2019-01-12T03:46:30.916Z,1009
2019-01-12T03:47:43.108Z,1009
2019-01-12T03:48:55.297Z,1009
2019-01-12T03:50:07.505Z,1009
2019-01-12T03:51:19.694Z,1008.9
2019-01-12T03:52:31.883Z,1009
2019-01-12T03:53:44.081Z,1008.9
2019-01-12T03:54:56.285Z,1008.9
2019-01-12T03:56:08.000Z,1008.9
2019-01-12T03:57:20.668Z,1009
2019-01-12T03:58:32.868Z,1008.9
2019-01-12T03:59:45.062Z,1008.9
2019-01-12T04:00:57.026Z,1008.9
2019-01-12T04:02:09.458Z,1008.8
2019-01-12T04:03:21.653Z,1008.8
2019-01-12T04:04:33.008Z,1008.8
2019-01-12T04:05:46.037Z,1008.8
2019-01-12T04:06:58.234Z,1008.8
2019-01-12T04:08:10.427Z,1008.8
2019-01-12T04:09:22.625Z,1008.8
2019-01-12T04:10:34.817Z,1008.8
2019-01-12T04:11:47.028Z,1008.8
2019-01-12T04:12:59.211Z,1008.7
2019-01-12T04:14:11.409Z,1008.8
2019-01-12T04:15:23.602Z,1008.8
2019-01-12T04:16:35.801Z,1008.8
2019-01-12T04:17:48.000Z,1008.8
2019-01-12T04:19:00.194Z,1008.8
2019-01-12T04:21:24.000Z,1008.8
2019-01-12T04:22:36.773Z,1008.8
2019-01-12T04:25:01.000Z,1008.8
2019-01-12T04:26:13.000Z,1008.8
2019-01-12T04:27:25.553Z,1008.7
2019-01-12T04:28:37.751Z,1008.7
2019-01-12T04:29:49.943Z,1008.8
2019-01-12T04:31:02.145Z,1008.7
2019-01-12T04:32:14.003Z,1008.8
2019-01-12T04:33:26.538Z,1008.7
2019-01-12T04:34:38.734Z,1008.7
2019-01-12T04:35:50.093Z,1008.7
2019-01-12T04:37:03.127Z,1008.7
2019-01-12T04:38:15.323Z,1008.7
2019-01-12T04:39:27.512Z,1008.7
2019-01-12T04:40:39.709Z,1008.7
2019-01-12T04:41:51.902Z,1008.7
2019-01-12T04:43:04.100Z,1008.7
2019-01-12T04:44:16.293Z,1008.6
2019-01-12T04:45:28.492Z,1008.6
2019-01-12T04:46:40.690Z,1008.7
2019-01-12T04:47:52.883Z,1008.6
2019-01-12T04:49:05.076Z,1008.6
2019-01-12T04:50:17.269Z,1008.6
2019-01-12T04:51:29.004Z,1008.5
2019-01-12T04:52:41.693Z,1008.6
2019-01-12T04:53:53.858Z,1008.6
2019-01-12T04:55:06.054Z,1008.5
2019-01-12T04:56:18.250Z,1008.6
2019-01-12T04:57:30.451Z,1008.6
2019-01-12T04:58:42.641Z,1008.6
2019-01-12T04:59:54.831Z,1008.6
2019-01-12T05:01:07.038Z,1008.7
2019-01-12T05:02:19.234Z,1008.7
2019-01-12T05:03:31.425Z,1008.6
2019-01-12T05:04:43.615Z,1008.6
2019-01-12T05:05:55.814Z,1008.6
2019-01-12T05:07:08.004Z,1008.7
2019-01-12T05:08:20.000Z,1008.7
2019-01-12T05:09:32.412Z,1008.7
2019-01-12T05:10:44.595Z,1008.7
2019-01-12T05:11:56.080Z,1008.7
2019-01-12T05:13:08.098Z,1008.7
2019-01-12T05:14:21.180Z,1008.7
2019-01-12T05:15:33.381Z,1008.6
2019-01-12T05:16:45.572Z,1008.6
2019-01-12T05:17:57.076Z,1008.7
2019-01-12T05:19:09.965Z,1008.6
2019-01-12T05:20:22.164Z,1008.7
2019-01-12T05:21:34.351Z,1008.6
2019-01-12T05:22:46.558Z,1008.7
2019-01-12T05:23:58.744Z,1008.7
2019-01-12T05:25:10.941Z,1008.6
2019-01-12T05:26:23.138Z,1008.6
2019-01-12T05:27:35.330Z,1008.6
2019-01-12T05:28:47.052Z,1008.6
2019-01-12T05:29:59.000Z,1008.7
2019-01-12T05:31:11.920Z,1008.6
2019-01-12T05:32:24.117Z,1008.7
2019-01-12T05:33:36.308Z,1008.7
2019-01-12T05:34:48.510Z,1008.7
2019-01-12T05:36:00.712Z,1008.6
2019-01-12T05:37:12.000Z,1008.7
2019-01-12T05:38:25.009Z,1008.7
2019-01-12T05:39:37.282Z,1008.7
2019-01-12T05:40:49.478Z,1008.7
2019-01-12T05:42:01.683Z,1008.7
2019-01-12T05:43:13.000Z,1008.6
2019-01-12T05:44:26.063Z,1008.7
2019-01-12T05:45:38.262Z,1008.7
2019-01-12T05:46:50.463Z,1008.7
2019-01-12T05:48:02.656Z,1008.7
2019-01-12T05:49:14.845Z,1008.7
2019-01-12T05:50:27.042Z,1008.6
2019-01-12T05:51:39.024Z,1008.7
2019-01-12T05:52:51.435Z,1008.6
2019-01-12T05:54:03.637Z,1008.6
2019-01-12T05:55:15.832Z,1008.6
2019-01-12T05:56:28.024Z,1008.7
2019-01-12T05:57:40.219Z,1008.7
2019-01-12T05:58:52.422Z,1008.7
2019-01-12T06:00:04.615Z,1008.6
2019-01-12T06:01:16.805Z,1008.6
2019-01-12T06:02:29.000Z,1008.6
2019-01-12T06:03:41.207Z,1008.6
2019-01-12T06:04:53.396Z,1008.6
2019-01-12T06:06:05.059Z,1008.6
2019-01-12T06:07:17.788Z,1008.6
2019-01-12T06:08:29.978Z,1008.6
2019-01-12T06:09:42.173Z,1008.7
2019-01-12T06:10:54.379Z,1008.7
2019-01-12T06:12:06.571Z,1008.6
2019-01-12T06:13:18.772Z,1008.7
2019-01-12T06:14:30.956Z,1008.6
2019-01-12T06:15:43.152Z,1008.6
2019-01-12T06:16:55.344Z,1008.7
2019-01-12T06:18:07.544Z,1008.6
2019-01-12T06:19:19.735Z,1008.6
2019-01-12T06:20:31.000Z,1008.5
2019-01-12T06:21:44.136Z,1008.6
2019-01-12T06:22:56.325Z,1008.6
2019-01-12T06:24:08.517Z,1008.6
2019-01-12T06:25:20.071Z,1008.7
2019-01-12T06:26:32.913Z,1008.6
2019-01-12T06:27:45.000Z,1008.7
2019-01-12T06:28:57.304Z,1008.7
2019-01-12T06:30:09.050Z,1008.7
2019-01-12T06:31:21.692Z,1008.7
2019-01-12T06:32:33.885Z,1008.6
2019-01-12T06:33:46.087Z,1008.6
2019-01-12T06:34:58.281Z,1008.6
2019-01-12T06:36:10.476Z,1008.6
2019-01-12T06:37:22.667Z,1008.7
2019-01-12T06:38:34.086Z,1008.7
2019-01-12T06:39:47.061Z,1008.7
2019-01-12T06:40:59.255Z,1008.7
2019-01-12T06:42:11.000Z,1008.6
2019-01-12T06:43:23.650Z,1008.6
2019-01-12T06:44:35.846Z,1008.7
2019-01-12T06:45:48.042Z,1008.6
2019-01-12T06:47:00.230Z,1008.7
2019-01-12T06:48:12.426Z,1008.6
2019-01-12T06:49:24.062Z,1008.6
2019-01-12T06:50:36.819Z,1008.7
2019-01-12T06:51:49.016Z,1008.6
2019-01-12T06:53:01.230Z,1008.5
2019-01-12T06:54:13.411Z,1008.5
2019-01-12T06:55:25.606Z,1008.5
2019-01-12T06:56:37.798Z,1008.5
2019-01-12T06:57:49.990Z,1008.6
2019-01-12T06:59:02.195Z,1008.5
2019-01-12T07:00:14.383Z,1008.5
2019-01-12T07:01:26.586Z,1008.5
2019-01-12T07:02:38.780Z,1008.5
2019-01-12T07:03:50.974Z,1008.5
2019-01-12T07:05:03.165Z,1008.5
2019-01-12T07:06:15.359Z,1008.6
2019-01-12T07:07:27.555Z,1008.5
2019-01-12T07:08:39.753Z,1008.6
2019-01-12T07:09:51.959Z,1008.6
2019-01-12T07:11:04.000Z,1008.6
2019-01-12T07:13:28.550Z,1008.5
2019-01-12T07:14:40.074Z,1008.5
2019-01-12T07:15:52.932Z,1008.6
2019-01-12T07:17:05.126Z,1008.6
2019-01-12T07:18:17.327Z,1008.6
2019-01-12T07:19:29.518Z,1008.6
2019-01-12T07:20:41.711Z,1008.6
2019-01-12T07:21:53.915Z,1008.6
2019-01-12T07:23:06.107Z,1008.6
2019-01-12T07:24:18.029Z,1008.6
2019-01-12T07:25:30.505Z,1008.6
2019-01-12T07:26:42.694Z,1008.6
2019-01-12T07:27:54.892Z,1008.7
2019-01-12T07:29:07.082Z,1008.6
2019-01-12T07:30:19.281Z,1008.6
2019-01-12T07:31:31.482Z,1008.6
2019-01-12T07:32:43.675Z,1008.6
2019-01-12T07:33:55.871Z,1008.6
2019-01-12T07:35:08.007Z,1008.7
2019-01-12T07:36:20.264Z,1008.7
2019-01-12T07:37:32.455Z,1008.6
2019-01-12T07:38:44.659Z,1008.7
2019-01-12T07:39:56.845Z,1008.7
2019-01-12T07:41:09.004Z,1008.6
2019-01-12T07:42:21.237Z,1008.6
2019-01-12T07:43:33.438Z,1008.7
2019-01-12T07:44:45.063Z,1008.7
2019-01-12T07:45:57.826Z,1008.6
2019-01-12T07:47:10.029Z,1008.6
2019-01-12T07:48:22.221Z,1008.6
2019-01-12T07:49:34.410Z,1008.6
2019-01-12T07:50:46.060Z,1008.6
2019-01-12T07:51:58.801Z,1008.6
2019-01-12T07:53:11.003Z,1008.5
2019-01-12T07:54:23.198Z,1008.6
2019-01-12T07:55:35.396Z,1008.6
2019-01-12T07:56:47.058Z,1008.5
2019-01-12T07:57:59.078Z,1008.5
2019-01-12T07:59:11.987Z,1008.5
2019-01-12T08:01:36.367Z,1008.5
2019-01-12T08:02:48.571Z,1008.4
2019-01-12T08:04:00.762Z,1008.4
2019-01-12T08:05:12.958Z,1008.4
2019-01-12T08:06:25.155Z,1008.4
2019-01-12T08:07:37.352Z,1008.3
2019-01-12T08:08:49.545Z,1008.3
2019-01-12T08:10:01.743Z,1008.3
2019-01-12T08:12:26.139Z,1008.3
2019-01-12T08:13:38.329Z,1008.3
2019-01-12T08:14:50.530Z,1008.3
2019-01-12T08:16:02.000Z,1008.3
2019-01-12T08:17:14.919Z,1008.3
2019-01-12T08:18:27.114Z,1008.3
2019-01-12T08:19:39.311Z,1008.3
2019-01-12T08:20:51.505Z,1008.3
2019-01-12T08:22:03.705Z,1008.3
2019-01-12T08:23:15.897Z,1008.3
2019-01-12T08:24:28.093Z,1008.2
2019-01-12T08:25:40.293Z,1008.2
2019-01-12T08:26:52.481Z,1008.3
2019-01-12T08:28:04.682Z,1008.2
2019-01-12T08:29:16.872Z,1008.3
2019-01-12T08:30:29.000Z,1008.2
2019-01-12T08:31:41.272Z,1008.2
2019-01-12T08:32:53.462Z,1008.2
2019-01-12T08:34:05.662Z,1008.1
2019-01-12T08:35:17.853Z,1008.1
2019-01-12T08:36:30.004Z,1008.2
2019-01-12T08:37:42.000Z,1008.1
2019-01-12T08:38:54.446Z,1008
2019-01-12T08:40:06.636Z,1008
2019-01-12T08:41:18.838Z,1008
2019-01-12T08:42:31.029Z,1008
2019-01-12T08:43:43.225Z,1008
2019-01-12T08:44:55.000Z,1007.9
2019-01-12T08:46:07.061Z,1007.9
2019-01-12T08:47:19.807Z,1007.9
2019-01-12T08:48:32.008Z,1007.9
2019-01-12T08:49:44.207Z,1007.9
2019-01-12T08:50:56.394Z,1007.9
2019-01-12T08:52:08.000Z,1007.9
2019-01-12T08:53:20.789Z,1007.9
2019-01-12T08:54:32.991Z,1007.9
2019-01-12T08:55:45.174Z,1007.8
2019-01-12T08:56:57.373Z,1007.8
2019-01-12T08:58:09.056Z,1007.8
2019-01-12T08:59:21.773Z,1007.8
2019-01-12T09:00:33.970Z,1007.8
2019-01-12T09:01:46.162Z,1007.8
2019-01-12T09:02:58.353Z,1007.8
2019-01-12T09:04:10.546Z,1007.8
2019-01-12T09:05:22.744Z,1007.8
2019-01-12T09:06:34.000Z,1007.7
2019-01-12T09:07:47.140Z,1007.7
2019-01-12T09:08:59.033Z,1007.7
2019-01-12T09:10:11.544Z,1007.7
2019-01-12T09:11:23.721Z,1007.6
2019-01-12T09:12:35.920Z,1007.6
2019-01-12T09:13:48.110Z,1007.6
2019-01-12T09:15:00.312Z,1007.6
2019-01-12T09:16:12.501Z,1007.5
2019-01-12T09:17:24.699Z,1007.5
2019-01-12T09:18:36.898Z,1007.4
2019-01-12T09:19:49.096Z,1007.4
2019-01-12T09:21:01.284Z,1007.5
2019-01-12T09:22:13.486Z,1007.4
2019-01-12T09:23:25.677Z,1007.4
2019-01-12T09:25:50.076Z,1007.4
2019-01-12T09:27:02.268Z,1007.4
2019-01-12T09:28:14.000Z,1007.4
2019-01-12T09:29:26.658Z,1007.4
2019-01-12T09:31:51.049Z,1007.4
2019-01-12T09:33:03.244Z,1007.4
2019-01-12T09:34:15.444Z,1007.4
2019-01-12T09:35:27.640Z,1007.3
2019-01-12T09:36:39.834Z,1007.3
2019-01-12T09:37:52.035Z,1007.3
2019-01-12T09:39:04.000Z,1007.3
2019-01-12T09:40:16.423Z,1007.2
2019-01-12T09:41:28.613Z,1007.2
2019-01-12T09:42:40.816Z,1007.2
2019-01-12T09:43:53.007Z,1007.3
2019-01-12T09:45:05.201Z,1007.2
2019-01-12T09:46:17.404Z,1007.2
2019-01-12T09:47:29.596Z,1007.2
2019-01-12T09:48:41.788Z,1007.2
2019-01-12T09:49:54.001Z,1007.2
2019-01-12T09:51:06.018Z,1007.2
2019-01-12T09:52:18.378Z,1007.2
2019-01-12T09:53:30.572Z,1007.1
2019-01-12T09:54:42.766Z,1007.1
2019-01-12T09:55:54.968Z,1007.1
2019-01-12T09:57:07.000Z,1007.1
2019-01-12T09:58:19.468Z,1007.1
2019-01-12T09:59:31.672Z,1007.1
2019-01-12T10:00:43.869Z,1007
2019-01-12T10:01:56.057Z,1007
2019-01-12T10:03:08.256Z,1007
2019-01-12T10:04:20.000Z,1007
2019-01-12T10:05:32.064Z,1006.9
2019-01-12T10:06:44.838Z,1006.9
2019-01-12T10:07:57.033Z,1006.8
2019-01-12T10:09:09.228Z,1006.9
2019-01-12T10:10:21.427Z,1006.8
2019-01-12T10:11:33.000Z,1006.8
2019-01-12T10:12:45.815Z,1006.8
2019-01-12T10:13:58.017Z,1006.8
2019-01-12T10:15:10.204Z,1006.8
2019-01-12T10:16:22.041Z,1006.8
2019-01-12T10:17:34.604Z,1006.7
2019-01-12T10:18:46.798Z,1006.7
2019-01-12T10:19:58.000Z,1006.6
2019-01-12T10:21:11.193Z,1006.7
2019-01-12T10:22:23.382Z,1006.6
2019-01-12T10:23:35.580Z,1006.6
2019-01-12T10:24:47.777Z,1006.7
2019-01-12T10:25:59.973Z,1006.6
2019-01-12T10:27:12.171Z,1006.6
2019-01-12T10:28:24.363Z,1006.6
2019-01-12T10:29:36.560Z,1006.6
2019-01-12T10:30:48.760Z,1006.5
2019-01-12T10:32:00.951Z,1006.6
2019-01-12T10:33:13.000Z,1006.5
2019-01-12T10:34:25.000Z,1006.5
2019-01-12T10:35:37.535Z,1006.5
2019-01-12T10:36:49.733Z,1006.5
2019-01-12T10:38:01.923Z,1006.5
2019-01-12T10:39:14.124Z,1006.5
2019-01-12T10:40:26.000Z,1006.4
2019-01-12T10:41:38.510Z,1006.4
2019-01-12T10:42:50.706Z,1006.5
2019-01-12T10:44:02.910Z,1006.4
2019-01-12T10:45:15.013Z,1006.4
2019-01-12T10:46:27.300Z,1006.4
2019-01-12T10:47:39.000Z,1006.3
2019-01-12T10:48:51.693Z,1006.2
2019-01-12T10:50:03.888Z,1006.2
2019-01-12T10:51:16.083Z,1006.2
2019-01-12T10:52:28.277Z,1006.2
2019-01-12T10:53:40.474Z,1006.2
2019-01-12T10:54:52.663Z,1006.3
2019-01-12T10:56:04.871Z,1006.3
2019-01-12T10:57:17.062Z,1006.2
2019-01-12T10:58:29.251Z,1006.2
2019-01-12T10:59:41.456Z,1006.1
2019-01-12T11:02:05.846Z,1006.1
2019-01-12T11:03:18.035Z,1006.2
2019-01-12T11:04:30.234Z,1006.1
2019-01-12T11:05:42.427Z,1006.2
2019-01-12T11:06:54.623Z,1006.1
2019-01-12T11:08:06.816Z,1006
2019-01-12T11:09:19.010Z,1006
2019-01-12T11:10:31.214Z,1006
2019-01-12T11:14:07.794Z,1006
2019-01-12T11:15:20.001Z,1005.9
2019-01-12T11:16:32.000Z,1005.9
2019-01-12T11:17:44.386Z,1006
2019-01-12T11:18:56.582Z,1005.9
2019-01-12T11:20:08.782Z,1005.9
2019-01-12T11:21:20.978Z,1005.9
2019-01-12T11:22:33.173Z,1005.8
2019-01-12T11:23:45.000Z,1005.7
2019-01-12T11:24:57.558Z,1005.7
2019-01-12T11:26:09.761Z,1005.7
2019-01-12T11:27:21.956Z,1005.7
2019-01-12T11:28:34.145Z,1005.7
2019-01-12T11:29:46.344Z,1005.7
2019-01-12T11:30:58.546Z,1005.7
2019-01-12T11:32:10.744Z,1005.6
2019-01-12T11:33:22.938Z,1005.5
2019-01-12T11:34:35.135Z,1005.5
2019-01-12T11:35:47.032Z,1005.5
2019-01-12T11:38:11.721Z,1005.4
2019-01-12T11:39:23.909Z,1005.4
2019-01-12T11:41:48.030Z,1005.4
2019-01-12T11:43:00.508Z,1005.4
2019-01-12T11:44:12.694Z,1005.3
2019-01-12T11:45:24.891Z,1005.3
2019-01-12T11:46:37.085Z,1005.3
2019-01-12T11:47:49.280Z,1005.3
2019-01-12T11:49:01.483Z,1005.3
2019-01-12T11:50:13.674Z,1005.3
2019-01-12T11:51:25.872Z,1005.3
2019-01-12T11:52:38.062Z,1005.3
2019-01-12T11:53:50.256Z,1005.3
2019-01-12T11:55:02.451Z,1005.2
2019-01-12T11:56:14.640Z,1005.3
2019-01-12T11:57:26.844Z,1005.2
2019-01-12T11:58:39.032Z,1005.2
2019-01-12T11:59:51.235Z,1005.1
2019-01-12T12:01:03.425Z,1005.2
2019-01-12T12:02:15.619Z,1005.1
2019-01-12T12:03:27.811Z,1005.1
2019-01-12T12:04:40.002Z,1005.1
2019-01-12T12:05:52.192Z,1005.1
2019-01-12T12:07:04.395Z,1005
2019-01-12T12:08:16.607Z,1004.9
2019-01-12T12:09:28.781Z,1005
2019-01-12T12:10:40.977Z,1005
2019-01-12T12:11:53.173Z,1005
2019-01-12T12:13:05.354Z,1004.9
2019-01-12T12:14:17.055Z,1004.9
2019-01-12T12:15:29.752Z,1004.8
2019-01-12T12:16:41.941Z,1004.8
2019-01-12T12:17:54.014Z,1004.8
2019-01-12T12:19:06.334Z,1004.7
2019-01-12T12:20:18.533Z,1004.7
2019-01-12T12:21:30.000Z,1004.8
2019-01-12T12:22:42.913Z,1004.6
2019-01-12T12:23:55.105Z,1004.7
2019-01-12T12:25:07.305Z,1004.6
2019-01-12T12:26:19.502Z,1004.6
2019-01-12T12:27:31.694Z,1004.5
2019-01-12T12:28:43.878Z,1004.5
2019-01-12T12:29:56.008Z,1004.4
2019-01-12T12:31:08.270Z,1004.4
2019-01-12T12:32:20.459Z,1004.4
2019-01-12T12:33:32.655Z,1004.4
2019-01-12T12:34:44.848Z,1004.4
2019-01-12T12:35:57.004Z,1004.3
2019-01-12T12:37:09.256Z,1004.3
2019-01-12T12:38:21.438Z,1004.3
2019-01-12T12:39:33.633Z,1004.3
2019-01-12T12:41:58.001Z,1004.1
2019-01-12T12:43:10.219Z,1004.2
2019-01-12T12:44:22.405Z,1004
2019-01-12T12:45:34.595Z,1004
2019-01-12T12:46:46.791Z,1004.1
2019-01-12T12:47:58.098Z,1004
2019-01-12T12:49:11.017Z,1004
2019-01-12T12:51:35.573Z,1003.9
2019-01-12T12:52:47.764Z,1003.9
2019-01-12T12:54:00.065Z,1004
2019-01-12T12:56:24.034Z,1003.8
2019-01-12T12:57:36.539Z,1003.8
2019-01-12T12:58:48.733Z,1003.8
2019-01-12T13:00:00.925Z,1003.7
2019-01-12T13:03:37.505Z,1003.7
2019-01-12T13:04:49.071Z,1003.8
2019-01-12T13:06:01.900Z,1003.7
2019-01-12T13:07:14.091Z,1003.7
2019-01-12T13:08:26.282Z,1003.7
2019-01-12T13:09:38.004Z,1003.8
2019-01-12T13:10:50.675Z,1003.7
2019-01-12T13:12:02.864Z,1003.7
2019-01-12T13:13:15.063Z,1003.6
2019-01-12T13:14:27.252Z,1003.6
2019-01-12T13:15:39.445Z,1003.6
2019-01-12T13:16:51.065Z,1003.5
2019-01-12T13:18:03.835Z,1003.5
2019-01-12T13:19:16.003Z,1003.5
2019-01-12T13:20:28.239Z,1003.6
2019-01-12T13:21:40.042Z,1003.6
2019-01-12T13:22:52.000Z,1003.4
2019-01-12T13:24:04.808Z,1003.5
2019-01-12T13:25:17.004Z,1003.4
2019-01-12T13:26:29.196Z,1003.4
2019-01-12T13:27:41.390Z,1003.4
2019-01-12T13:28:53.584Z,1003.4
2019-01-12T13:30:05.774Z,1003.3
2019-01-12T13:31:17.969Z,1003.3
2019-01-12T13:32:30.016Z,1003.3
2019-01-12T13:33:42.362Z,1003.3
2019-01-12T13:34:54.547Z,1003.3
2019-01-12T13:37:18.937Z,1003.3
2019-01-12T13:39:43.325Z,1003.2
2019-01-12T13:40:55.052Z,1003.2
2019-01-12T13:42:07.715Z,1003.1
2019-01-12T13:43:19.091Z,1003
2019-01-12T13:44:32.102Z,1003.1
2019-01-12T13:45:44.297Z,1003
2019-01-12T13:46:56.497Z,1003
2019-01-12T13:48:08.707Z,1003
2019-01-12T13:49:20.878Z,1002.9
2019-01-12T13:50:33.080Z,1003
2019-01-12T13:51:45.271Z,1003
2019-01-12T13:52:57.466Z,1002.9
2019-01-12T13:54:09.656Z,1002.8
2019-01-12T13:55:21.084Z,1003
2019-01-12T13:56:34.042Z,1002.8
2019-01-12T13:57:46.238Z,1002.8
2019-01-12T13:58:58.427Z,1002.8
2019-01-12T14:00:10.625Z,1002.8
2019-01-12T14:01:22.813Z,1002.7
2019-01-12T14:02:35.009Z,1002.7
2019-01-12T14:03:47.205Z,1002.7
2019-01-12T14:04:59.395Z,1002.7
2019-01-12T14:06:11.595Z,1002.7
2019-01-12T14:07:23.795Z,1002.7
2019-01-12T14:08:35.983Z,1002.7
2019-01-12T14:09:48.182Z,1002.6
2019-01-12T14:11:00.389Z,1002.6
2019-01-12T14:12:12.056Z,1002.7
2019-01-12T14:13:24.756Z,1002.6
2019-01-12T14:14:36.951Z,1002.6
2019-01-12T14:15:49.150Z,1002.6
2019-01-12T14:17:01.345Z,1002.5
2019-01-12T14:18:13.540Z,1002.6
2019-01-12T14:19:25.736Z,1002.5
2019-01-12T14:20:37.926Z,1002.5
2019-01-12T14:21:50.114Z,1002.5
2019-01-12T14:23:02.310Z,1002.5
2019-01-12T14:24:14.516Z,1002.3
2019-01-12T14:26:38.894Z,1002.3
2019-01-12T14:27:51.087Z,1002.3
2019-01-12T14:29:03.281Z,1002.3
2019-01-12T14:30:15.479Z,1002.3
2019-01-12T14:31:26.000Z,1002.2
2019-01-12T14:32:39.865Z,1002.2
2019-01-12T14:33:52.057Z,1002.2
2019-01-12T14:35:04.025Z,1002.1
2019-01-12T14:36:16.442Z,1002.1
2019-01-12T14:37:28.000Z,1002.1
2019-01-12T14:38:40.839Z,1002.1
2019-01-12T14:39:53.022Z,1002.1
2019-01-12T14:41:05.228Z,1002.1
2019-01-12T14:42:17.419Z,1002
2019-01-12T14:43:29.611Z,1002
2019-01-12T14:44:41.806Z,1002
2019-01-12T14:45:53.000Z,1001.9
2019-01-12T14:47:06.195Z,1002
2019-01-12T14:48:18.383Z,1001.9
2019-01-12T14:49:30.613Z,1001.9
2019-01-12T14:51:54.969Z,1001.9
2019-01-12T14:53:07.016Z,1001.8
2019-01-12T14:55:31.550Z,1001.8
2019-01-12T14:56:43.741Z,1001.7
2019-01-12T14:57:55.943Z,1001.7
2019-01-12T14:59:08.013Z,1001.7
2019-01-12T15:00:20.331Z,1001.7
2019-01-12T15:02:44.717Z,1001.7
2019-01-12T15:03:56.090Z,1001.6
2019-01-12T15:05:09.110Z,1001.6
2019-01-12T15:06:21.295Z,1001.5
2019-01-12T15:07:33.494Z,1001.5
2019-01-12T15:08:45.685Z,1001.6
2019-01-12T15:09:57.887Z,1001.5
2019-01-12T15:11:10.129Z,1001.5
2019-01-12T15:12:22.270Z,1001.4
2019-01-12T15:13:34.465Z,1001.5
2019-01-12T15:14:46.650Z,1001.5
2019-01-12T15:15:58.085Z,1001.4
2019-01-12T15:17:11.006Z,1001.4
2019-01-12T15:18:23.233Z,1001.4
2019-01-12T15:19:35.430Z,1001.3
2019-01-12T15:20:47.620Z,1001.3
2019-01-12T15:21:59.815Z,1001.3
2019-01-12T15:23:12.010Z,1001.2
2019-01-12T15:24:24.211Z,1001.2
2019-01-12T15:25:36.405Z,1001.2
2019-01-12T15:26:48.601Z,1001.1
2019-01-12T15:28:00.788Z,1001.2
2019-01-12T15:29:12.000Z,1001.3
2019-01-12T15:30:25.336Z,1001.1
2019-01-12T15:31:37.372Z,1001.2
2019-01-12T15:32:49.559Z,1001.3
2019-01-12T15:34:01.773Z,1001.1
2019-01-12T15:35:13.000Z,1001
2019-01-12T15:36:26.000Z,1001
2019-01-12T15:38:50.537Z,1000.9
2019-01-12T15:40:02.728Z,1000.9
2019-01-12T15:41:14.924Z,1000.9
2019-01-12T15:42:27.116Z,1000.9
2019-01-12T15:43:39.306Z,1000.9
2019-01-12T15:44:51.505Z,1000.9
2019-01-12T15:46:03.698Z,1000.9